Time;durP1;ratioP1;P1;durP2;ratioP2;P2;SDS_P1;SDS_P2;PMS_P1;PMS_P2;Temp;Humidity;BMP_temperature;BMP_pressure;BME280_temperature;BME280_humidity;BME280_pressure;Samples;Min_cycle;Max_cycle;Signal;HPM_P1;HPM_P2
2022/06/29 00:00:51;;;;;;;15.85;9.82;;;20.80;99.90;;;;;;5013196;28;20395;-89
2022/06/29 00:03:19;;;;;;;12.20;10.53;;;20.80;99.90;;;;;;5013355;28;20399;-89
2022/06/29 00:05:47;;;;;;;14.63;9.90;;;20.80;99.90;;;;;;5039579;28;20436;-89
2022/06/29 00:08:17;;;;;;;12.82;10.35;;;20.90;99.90;;;;;;5015618;28;20394;-88
2022/06/29 00:10:44;;;;;;;14.43;9.90;;;20.80;99.90;;;;;;5032299;28;20391;-89
2022/06/29 00:13:12;;;;;;;15.35;10.55;;;20.80;99.90;;;;;;5015285;28;20394;-87
2022/06/29 00:15:39;;;;;;;13.88;9.98;;;20.80;99.90;;;;;;5029262;28;20927;-88
2022/06/29 00:18:07;;;;;;;11.40;8.98;;;20.80;99.90;;;;;;5013131;28;20418;-88
2022/06/29 00:20:35;;;;;;;13.00;10.60;;;20.80;99.90;;;;;;5013315;28;20395;-88
2022/06/29 00:23:02;;;;;;;11.57;10.45;;;20.70;99.90;;;;;;4997053;28;20401;-87
2022/06/29 00:25:30;;;;;;;15.77;10.35;;;20.70;99.90;;;;;;5021601;28;20389;-87
2022/06/29 00:27:58;;;;;;;16.10;10.38;;;20.70;99.90;;;;;;5020211;28;20388;-87
2022/06/29 00:30:25;;;;;;;12.88;9.95;;;20.60;99.90;;;;;;5019467;28;20496;-88
2022/06/29 00:32:53;;;;;;;15.10;10.20;;;20.70;99.90;;;;;;5020274;28;20472;-87
2022/06/29 00:35:21;;;;;;;14.23;10.93;;;20.60;99.90;;;;;;5013116;28;20390;-86
2022/06/29 00:37:48;;;;;;;11.13;9.48;;;20.60;99.90;;;;;;5039348;28;20396;-86
2022/06/29 00:40:16;;;;;;;12.70;10.10;;;20.60;99.90;;;;;;5011222;28;20407;-87
2022/06/29 00:42:44;;;;;;;14.75;9.45;;;20.60;99.90;;;;;;5012220;28;20392;-87
2022/06/29 00:45:12;;;;;;;13.87;10.80;;;20.60;99.90;;;;;;5011206;28;20770;-87
2022/06/29 00:47:39;;;;;;;13.05;11.02;;;20.60;99.90;;;;;;5012605;28;20406;-87
2022/06/29 00:50:07;;;;;;;11.68;9.88;;;20.60;99.90;;;;;;5011931;28;20391;-88
2022/06/29 00:52:39;;;;;;;12.18;10.52;;;20.30;99.90;;;;;;5043550;28;20387;-88
2022/06/29 00:55:10;;;;;;;12.73;9.30;;;20.30;99.90;;;;;;5012192;28;20409;-88
2022/06/29 00:57:42;;;;;;;11.00;9.30;;;20.40;99.90;;;;;;5026936;28;20416;-88
2022/06/29 01:00:11;;;;;;;11.43;9.55;;;20.50;99.90;;;;;;4992873;28;20860;-86
2022/06/29 01:02:38;;;;;;;13.63;10.40;;;20.60;99.90;;;;;;4992655;28;20393;-87
2022/06/29 01:05:07;;;;;;;11.13;9.98;;;20.50;99.90;;;;;;5024514;28;20420;-87
2022/06/29 01:07:34;;;;;;;12.75;10.00;;;20.50;99.90;;;;;;4997388;28;20847;-88
2022/06/29 01:10:03;;;;;;;11.98;10.13;;;20.50;99.90;;;;;;5024081;28;20416;-87
2022/06/29 01:12:31;;;;;;;12.23;10.00;;;20.50;99.90;;;;;;5027343;28;20427;-88
2022/06/29 01:14:59;;;;;;;14.27;9.70;;;20.50;99.90;;;;;;5011971;28;20395;-88
2022/06/29 01:17:27;;;;;;;12.30;10.32;;;20.50;99.90;;;;;;5011870;28;20971;-87
2022/06/29 01:19:54;;;;;;;12.40;9.95;;;20.50;99.90;;;;;;5027651;28;20403;-87
2022/06/29 01:22:24;;;;;;;13.37;11.20;;;20.40;99.90;;;;;;5043470;28;20387;-88
2022/06/29 01:24:51;;;;;;;11.30;8.85;;;20.40;99.90;;;;;;4992490;28;20404;-88
2022/06/29 01:27:20;;;;;;;12.85;9.77;;;20.50;99.90;;;;;;5023702;28;20922;-88
2022/06/29 01:29:48;;;;;;;11.15;9.82;;;20.50;99.90;;;;;;4991538;28;20395;-87
2022/06/29 01:32:16;;;;;;;14.32;10.98;;;20.50;99.90;;;;;;4992265;28;20399;-88
2022/06/29 01:34:43;;;;;;;12.10;10.30;;;20.50;99.90;;;;;;5007873;28;20496;-88
2022/06/29 01:37:11;;;;;;;10.83;9.50;;;20.50;99.90;;;;;;4994026;28;20389;-88
2022/06/29 01:39:41;;;;;;;16.00;9.93;;;20.50;99.90;;;;;;5009923;28;20758;-88
2022/06/29 01:42:09;;;;;;;12.52;10.45;;;20.60;99.90;;;;;;5010827;28;20410;-88
2022/06/29 01:44:37;;;;;;;11.18;9.85;;;20.60;99.90;;;;;;5010430;28;20437;-87
2022/06/29 01:47:05;;;;;;;12.68;9.75;;;20.60;99.90;;;;;;5011733;28;20388;-89
2022/06/29 01:49:33;;;;;;;11.85;9.93;;;20.60;99.90;;;;;;5011770;28;20482;-87
2022/06/29 01:52:01;;;;;;;14.10;9.25;;;20.50;99.90;;;;;;5043224;28;20398;-88
2022/06/29 01:54:28;;;;;;;11.10;9.63;;;20.50;99.90;;;;;;5026505;28;20410;-87
2022/06/29 01:56:56;;;;;;;14.43;10.45;;;20.60;99.90;;;;;;5043425;28;20420;-87
2022/06/29 01:59:23;;;;;;;10.88;9.77;;;20.60;99.90;;;;;;5011544;28;20399;-88
2022/06/29 02:01:51;;;;;;;11.93;10.15;;;20.60;99.90;;;;;;4997067;28;20397;-87
2022/06/29 02:04:19;;;;;;;13.13;10.57;;;20.70;99.90;;;;;;4995934;28;20404;-88
2022/06/29 02:06:46;;;;;;;13.77;10.50;;;20.70;99.90;;;;;;5010657;28;20487;-88
2022/06/29 02:09:14;;;;;;;12.65;9.85;;;20.70;99.90;;;;;;5014534;28;20719;-89
2022/06/29 02:11:42;;;;;;;12.55;9.90;;;20.70;99.90;;;;;;5046864;28;20449;-87
2022/06/29 02:14:10;;;;;;;12.82;10.05;;;20.80;99.90;;;;;;5015280;28;20391;-87
2022/06/29 02:16:38;;;;;;;13.73;11.07;;;20.80;99.90;;;;;;5046256;28;20841;-87
2022/06/29 02:19:05;;;;;;;14.70;11.20;;;20.80;99.90;;;;;;5047015;28;20798;-87
2022/06/29 02:21:33;;;;;;;13.50;11.15;;;20.90;99.90;;;;;;5014072;28;20391;-87
2022/06/29 02:24:00;;;;;;;12.85;11.02;;;20.80;99.90;;;;;;5015048;28;20410;-87
2022/06/29 02:26:28;;;;;;;13.30;11.43;;;20.70;99.90;;;;;;5010427;28;20443;-86
2022/06/29 02:28:57;;;;;;;11.88;10.57;;;20.80;99.90;;;;;;5027211;28;20424;-85
2022/06/29 02:36:58;;;;;;;12.90;10.75;;;20.80;99.90;;;;;;4999581;28;20398;-87
2022/06/29 02:39:25;;;;;;;12.10;10.57;;;20.90;99.90;;;;;;5026025;28;20389;-88
2022/06/29 02:41:53;;;;;;;14.50;11.90;;;20.90;99.90;;;;;;5017020;28;20417;-88
2022/06/29 02:44:21;;;;;;;12.88;11.45;;;20.90;99.90;;;;;;5032998;28;20405;-88
2022/06/29 02:46:48;;;;;;;12.13;10.50;;;20.90;99.90;;;;;;5032868;28;20401;-87
2022/06/29 02:49:16;;;;;;;12.63;10.25;;;20.90;99.90;;;;;;5034218;28;20440;-87
2022/06/29 02:51:43;;;;;;;12.30;11.10;;;20.90;99.90;;;;;;5034088;28;20423;-86
2022/06/29 02:54:11;;;;;;;15.07;11.43;;;20.90;99.90;;;;;;5034288;28;20393;-87
2022/06/29 02:56:39;;;;;;;11.03;9.93;;;21.00;99.90;;;;;;5033796;28;20451;-88
2022/06/29 02:59:06;;;;;;;11.13;9.95;;;20.90;99.90;;;;;;5034306;28;20385;-87
2022/06/29 03:01:35;;;;;;;11.23;10.05;;;20.90;99.90;;;;;;5016455;28;20405;-87
2022/06/29 03:04:02;;;;;;;12.05;10.85;;;21.00;99.90;;;;;;5014815;28;20398;-87
2022/06/29 03:06:30;;;;;;;10.80;9.57;;;21.00;99.90;;;;;;5015961;28;20763;-87
2022/06/29 03:08:58;;;;;;;12.65;11.35;;;21.00;99.90;;;;;;5016343;28;20460;-87
2022/06/29 03:11:25;;;;;;;12.13;10.93;;;21.00;99.90;;;;;;5026344;28;20777;-88
2022/06/29 03:13:53;;;;;;;11.33;9.90;;;21.00;99.90;;;;;;5012107;28;20421;-89
2022/06/29 03:16:21;;;;;;;14.13;11.50;;;21.10;99.90;;;;;;5014295;28;20826;-88
2022/06/29 03:18:50;;;;;;;13.23;10.70;;;21.10;99.90;;;;;;5013005;28;20387;-88
2022/06/29 03:21:18;;;;;;;13.43;10.60;;;21.10;99.90;;;;;;5021107;28;20392;-87
2022/06/29 03:23:46;;;;;;;12.82;10.65;;;21.00;99.90;;;;;;5015965;28;20726;-86
2022/06/29 03:26:13;;;;;;;13.43;10.35;;;21.10;99.90;;;;;;5013105;28;20820;-87
2022/06/29 03:28:41;;;;;;;12.82;11.40;;;21.20;99.90;;;;;;5013968;28;20383;-87
2022/06/29 03:31:09;;;;;;;12.77;11.47;;;21.20;99.90;;;;;;5014068;28;20383;-88
2022/06/29 03:33:36;;;;;;;13.48;12.07;;;21.10;99.90;;;;;;5014209;28;20384;-87
2022/06/29 03:36:04;;;;;;;12.55;11.25;;;21.20;99.90;;;;;;5012883;28;20395;-87
2022/06/29 03:38:32;;;;;;;14.33;11.90;;;21.10;99.90;;;;;;5013254;28;20414;-86
2022/06/29 03:40:59;;;;;;;13.25;11.75;;;21.20;99.90;;;;;;5048718;28;20408;-87
2022/06/29 03:43:27;;;;;;;13.60;11.48;;;21.20;99.90;;;;;;5033247;28;20393;-87
2022/06/29 03:45:54;;;;;;;14.15;12.75;;;21.10;99.90;;;;;;5016026;28;20473;-88
2022/06/29 03:48:22;;;;;;;13.48;12.05;;;21.20;99.90;;;;;;5030945;28;20388;-87
2022/06/29 03:50:50;;;;;;;13.43;12.03;;;21.20;99.90;;;;;;5033495;28;20385;-87
2022/06/29 03:53:17;;;;;;;12.80;11.50;;;21.20;99.90;;;;;;5015301;28;20437;-89
2022/06/29 03:55:45;;;;;;;13.88;12.23;;;21.20;99.90;;;;;;5013582;28;20391;-88
2022/06/29 03:58:12;;;;;;;13.00;11.70;;;21.30;99.90;;;;;;5013642;28;20457;-88
2022/06/29 04:00:40;;;;;;;13.32;12.02;;;21.30;99.90;;;;;;5013414;28;20391;-86
2022/06/29 04:03:08;;;;;;;12.60;11.40;;;21.30;99.90;;;;;;5013477;28;20866;-87
2022/06/29 04:05:36;;;;;;;14.30;11.07;;;21.30;99.90;;;;;;5028311;28;20917;-87
2022/06/29 04:08:04;;;;;;;14.57;12.48;;;21.00;99.90;;;;;;5012051;28;20547;-88
2022/06/29 04:10:31;;;;;;;16.07;14.07;;;21.00;99.90;;;;;;4995618;28;20711;-86
2022/06/29 04:12:59;;;;;;;17.30;14.48;;;21.10;99.90;;;;;;5013379;28;20386;-88
2022/06/29 04:15:26;;;;;;;14.10;12.30;;;21.20;99.90;;;;;;5033082;28;20871;-86
2022/06/29 04:17:54;;;;;;;14.90;12.70;;;21.30;99.90;;;;;;5015965;28;20426;-88
2022/06/29 04:23:07;;;;;;;19.48;17.25;;;21.30;99.90;;;;;;5048285;28;20408;-88
2022/06/29 04:25:35;;;;;;;21.88;17.83;;;21.30;99.90;;;;;;5015385;28;20957;-88
2022/06/29 04:28:03;;;;;;;24.08;19.05;;;21.30;99.90;;;;;;5047924;28;20413;-88
2022/06/29 04:30:31;;;;;;;23.45;19.65;;;21.20;99.90;;;;;;5027098;28;20814;-86
2022/06/29 04:32:58;;;;;;;20.23;18.02;;;21.20;99.90;;;;;;5045667;28;20385;-89
2022/06/29 04:35:26;;;;;;;22.42;18.13;;;21.30;99.90;;;;;;5048018;28;20770;-87
2022/06/29 04:37:54;;;;;;;19.70;16.75;;;21.30;99.90;;;;;;5032299;28;20439;-86
2022/06/29 04:40:21;;;;;;;18.15;15.52;;;21.30;99.90;;;;;;5038913;28;20406;-88
2022/06/29 04:42:49;;;;;;;20.13;16.10;;;21.30;99.90;;;;;;5027830;28;20403;-88
2022/06/29 04:48:03;;;;;;;18.25;16.13;;;21.30;99.90;;;;;;5012812;28;20389;-87
2022/06/29 04:50:31;;;;;;;19.60;16.33;;;21.30;99.90;;;;;;5012729;28;20462;-87
2022/06/29 04:52:58;;;;;;;17.25;15.23;;;21.30;99.90;;;;;;5028121;28;20414;-88
2022/06/29 04:55:29;;;;;;;16.25;14.55;;;21.30;99.90;;;;;;5027612;28;20391;-87
2022/06/29 04:57:57;;;;;;;16.98;15.25;;;21.30;99.90;;;;;;5012871;28;20403;-87
2022/06/29 05:00:24;;;;;;;17.25;15.38;;;21.30;99.90;;;;;;5023722;28;20928;-87
2022/06/29 05:02:52;;;;;;;17.80;15.63;;;21.30;99.90;;;;;;5012376;28;20489;-88
2022/06/29 05:05:20;;;;;;;43.80;34.63;;;21.40;99.90;;;;;;5027432;28;20449;-87
2022/06/29 05:07:48;;;;;;;19.67;15.02;;;21.40;99.90;;;;;;5012222;28;20418;-87
2022/06/29 05:10:16;;;;;;;17.58;13.35;;;21.40;99.90;;;;;;5011582;28;20958;-86
2022/06/29 05:12:43;;;;;;;16.20;13.68;;;21.40;99.90;;;;;;5033510;28;20662;-89
2022/06/29 05:15:11;;;;;;;15.43;13.83;;;21.40;99.90;;;;;;5014395;28;20408;-89
2022/06/29 05:17:39;;;;;;;15.82;13.90;;;21.50;99.90;;;;;;5028261;28;20894;-88
2022/06/29 05:20:08;;;;;;;19.63;15.63;;;21.50;99.90;;;;;;5007539;28;20391;-90
2022/06/29 05:22:36;;;;;;;21.73;17.15;;;21.60;99.90;;;;;;5009402;28;20418;-88
2022/06/29 05:25:04;;;;;;;18.20;15.05;;;21.70;99.90;;;;;;4996491;28;20455;-87
2022/06/29 05:27:32;;;;;;;17.92;13.95;;;21.70;99.90;;;;;;5034862;28;20819;-87
2022/06/29 05:30:00;;;;;;;16.88;13.75;;;21.80;99.90;;;;;;4998685;28;20395;-87
2022/06/29 05:32:30;;;;;;;15.55;12.45;;;21.90;99.90;;;;;;5011220;28;20399;-86
2022/06/29 05:34:58;;;;;;;13.10;11.40;;;21.90;99.90;;;;;;5024424;28;20398;-87
2022/06/29 05:37:25;;;;;;;13.27;11.63;;;22.00;99.90;;;;;;5024842;28;20402;-87
2022/06/29 05:39:53;;;;;;;13.35;12.05;;;22.00;99.90;;;;;;5023478;28;20407;-89
2022/06/29 05:42:21;;;;;;;15.05;13.45;;;22.10;99.90;;;;;;5015883;28;20394;-89
2022/06/29 05:44:48;;;;;;;15.35;12.60;;;22.10;99.90;;;;;;5025964;28;20406;-88
2022/06/29 05:47:16;;;;;;;12.60;11.20;;;22.20;99.90;;;;;;5031479;28;20417;-88
2022/06/29 05:49:44;;;;;;;12.73;11.50;;;22.30;99.90;;;;;;5033724;28;20876;-88
2022/06/29 05:52:12;;;;;;;12.43;11.23;;;22.30;99.90;;;;;;5050300;28;20480;-86
2022/06/29 05:54:39;;;;;;;10.95;9.80;;;22.30;99.90;;;;;;5035172;28;20381;-88
2022/06/29 05:57:07;;;;;;;13.07;9.75;;;22.30;99.90;;;;;;5023405;28;20398;-88
2022/06/29 05:59:35;;;;;;;8.05;7.28;;;22.30;99.90;;;;;;5014381;28;20395;-89
2022/06/29 06:02:03;;;;;;;8.13;6.28;;;22.30;99.90;;;;;;5003892;28;20436;-89
2022/06/29 06:04:31;;;;;;;7.35;5.68;;;22.50;99.90;;;;;;4997820;28;20398;-88
2022/06/29 06:06:59;;;;;;;7.30;5.90;;;22.60;99.90;;;;;;5030599;28;20391;-87
2022/06/29 06:09:27;;;;;;;7.00;5.53;;;22.40;99.90;;;;;;5002787;28;20398;-87
2022/06/29 06:11:55;;;;;;;6.70;5.88;;;22.50;99.90;;;;;;5014096;28;20486;-87
2022/06/29 06:14:22;;;;;;;6.40;5.60;;;22.60;99.90;;;;;;5033780;28;20393;-86
2022/06/29 06:16:51;;;;;;;7.60;5.72;;;22.60;99.90;;;;;;5034747;28;20444;-86
2022/06/29 06:19:18;;;;;;;7.88;6.78;;;22.70;99.90;;;;;;5034712;28;20880;-85
2022/06/29 06:21:46;;;;;;;8.82;7.93;;;22.70;99.90;;;;;;5034777;28;20397;-86
2022/06/29 06:24:13;;;;;;;11.00;9.88;;;22.70;99.90;;;;;;5027353;28;20401;-86
2022/06/29 06:26:41;;;;;;;9.85;8.75;;;22.70;99.90;;;;;;5000427;28;20429;-87
2022/06/29 06:29:09;;;;;;;13.95;10.02;;;22.90;99.90;;;;;;5011160;28;20391;-87
2022/06/29 06:31:36;;;;;;;10.60;9.50;;;23.00;99.90;;;;;;5030075;28;20831;-88
2022/06/29 06:34:04;;;;;;;10.63;9.33;;;23.00;99.90;;;;;;5030343;28;20796;-84
2022/06/29 06:36:32;;;;;;;9.75;8.75;;;23.00;99.90;;;;;;5014660;28;20808;-85
2022/06/29 06:38:59;;;;;;;9.85;8.85;;;23.00;99.90;;;;;;5014540;28;20701;-84
2022/06/29 06:41:27;;;;;;;11.48;9.38;;;23.10;99.90;;;;;;5014674;28;20387;-84
2022/06/29 06:43:57;;;;;;;9.93;8.93;;;23.10;99.90;;;;;;5029752;28;20430;-85
2022/06/29 06:46:27;;;;;;;10.25;9.25;;;23.20;99.90;;;;;;5013277;28;20430;-84
2022/06/29 06:48:54;;;;;;;11.18;8.65;;;23.20;99.90;;;;;;5028122;28;20486;-84
2022/06/29 06:51:23;;;;;;;10.53;8.40;;;23.20;99.90;;;;;;5014628;28;20395;-84
2022/06/29 06:53:51;;;;;;;8.07;7.28;;;23.20;99.90;;;;;;5013142;28;20395;-85
2022/06/29 06:56:19;;;;;;;8.02;7.22;;;23.20;99.90;;;;;;5029247;28;20391;-84
2022/06/29 06:58:47;;;;;;;8.10;7.30;;;23.10;99.90;;;;;;5029454;28;20458;-83
2022/06/29 07:01:22;;;;;;;9.40;7.43;;;23.20;99.90;;;;;;5014095;28;20453;-84
2022/06/29 07:03:50;;;;;;;9.03;7.27;;;23.30;99.90;;;;;;5014235;28;20426;-85
2022/06/29 07:06:18;;;;;;;12.32;7.68;;;23.40;99.90;;;;;;5012737;28;20407;-83
2022/06/29 07:08:46;;;;;;;13.18;8.52;;;23.40;99.90;;;;;;5015094;28;20386;-83
2022/06/29 07:11:14;;;;;;;11.77;8.88;;;23.40;99.90;;;;;;5048796;28;20394;-83
2022/06/29 07:13:41;;;;;;;9.82;8.68;;;23.40;99.90;;;;;;5033489;28;20796;-84
2022/06/29 07:16:09;;;;;;;8.57;7.77;;;23.60;99.90;;;;;;5016243;28;20464;-84
2022/06/29 07:18:37;;;;;;;6.80;6.20;;;23.60;99.90;;;;;;5008113;28;20401;-85
2022/06/29 07:21:05;;;;;;;6.95;6.35;;;23.70;99.90;;;;;;5025244;28;20387;-84
2022/06/29 07:23:32;;;;;;;6.65;6.00;;;23.70;99.90;;;;;;5013908;28;20387;-84
2022/06/29 07:26:00;;;;;;;8.30;6.38;;;23.70;99.90;;;;;;5029054;28;20438;-84
2022/06/29 07:28:27;;;;;;;15.88;6.88;;;23.70;99.90;;;;;;5013800;28;20383;-84
2022/06/29 07:30:55;;;;;;;12.35;6.90;;;23.70;99.90;;;;;;5029122;28;20799;-84
2022/06/29 07:33:22;;;;;;;16.85;7.38;;;23.70;99.90;;;;;;5013725;28;20387;-83
2022/06/29 07:35:50;;;;;;;13.13;7.30;;;23.70;99.90;;;;;;5013660;28;20449;-84
2022/06/29 07:38:19;;;;;;;13.95;7.07;;;23.70;99.90;;;;;;5028629;28;20398;-84
2022/06/29 07:40:46;;;;;;;13.55;6.93;;;23.70;99.90;;;;;;5014447;28;20397;-83
2022/06/29 07:43:14;;;;;;;9.63;7.57;;;23.80;99.90;;;;;;5032818;28;20884;-83
2022/06/29 07:45:42;;;;;;;10.45;7.80;;;23.90;99.90;;;;;;5033098;28;20409;-84
2022/06/29 07:48:10;;;;;;;9.60;7.82;;;24.00;99.90;;;;;;5032833;28;20405;-86
2022/06/29 07:50:38;;;;;;;10.50;7.68;;;24.10;99.90;;;;;;5029698;28;20401;-84
2022/06/29 07:53:05;;;;;;;8.50;7.65;;;24.20;99.90;;;;;;5035822;28;20397;-84
2022/06/29 07:55:33;;;;;;;9.47;8.47;;;24.20;99.90;;;;;;5005965;28;20750;-84
2022/06/29 07:58:00;;;;;;;10.40;8.67;;;24.20;99.90;;;;;;5028426;28;20387;-84
2022/06/29 08:00:28;;;;;;;9.40;8.50;;;24.30;99.90;;;;;;5013247;28;20932;-84
2022/06/29 08:02:56;;;;;;;8.82;8.00;;;24.30;99.90;;;;;;5014566;28;20383;-84
2022/06/29 08:05:24;;;;;;;9.68;7.68;;;24.30;99.90;;;;;;5012702;28;20446;-84
2022/06/29 08:07:51;;;;;;;8.13;7.43;;;24.30;99.90;;;;;;5028154;28;20387;-84
2022/06/29 08:10:19;;;;;;;11.32;9.93;;;24.40;99.90;;;;;;5023902;28;20444;-85
2022/06/29 08:12:47;;;;;;;11.48;10.27;;;24.50;99.90;;;;;;5014957;28;20382;-84
2022/06/29 08:15:17;;;;;;;10.50;9.40;;;24.70;99.90;;;;;;5032231;28;20456;-85
2022/06/29 08:17:45;;;;;;;11.73;9.90;;;24.80;99.90;;;;;;5015166;28;20389;-84
2022/06/29 08:20:13;;;;;;;11.47;9.93;;;24.90;99.90;;;;;;5032054;28;20385;-84
2022/06/29 08:22:41;;;;;;;12.38;10.85;;;24.80;99.90;;;;;;5015059;28;20477;-84
2022/06/29 08:25:09;;;;;;;13.30;10.88;;;24.80;99.90;;;;;;5032131;28;20388;-83
2022/06/29 08:27:38;;;;;;;13.40;10.65;;;24.90;99.90;;;;;;5032381;28;20389;-85
2022/06/29 08:30:13;;;;;;;10.77;9.10;;;24.90;99.90;;;;;;5032226;28;20393;-83
2022/06/29 08:32:44;;;;;;;10.15;8.93;;;25.00;99.90;;;;;;5014320;28;20406;-84
2022/06/29 08:35:14;;;;;;;9.07;7.85;;;25.10;99.90;;;;;;5014824;28;20386;-84
2022/06/29 08:37:43;;;;;;;9.73;8.82;;;25.10;99.90;;;;;;5014279;28;20386;-84
2022/06/29 08:40:13;;;;;;;10.60;9.33;;;25.20;99.90;;;;;;5046739;28;20402;-85
2022/06/29 08:42:41;;;;;;;12.40;9.40;;;25.20;99.90;;;;;;5030612;28;20396;-85
2022/06/29 08:45:11;;;;;;;12.43;9.20;;;25.30;99.90;;;;;;5014079;28;20398;-84
2022/06/29 08:47:41;;;;;;;11.70;9.00;;;25.30;99.90;;;;;;5032000;28;20382;-84
2022/06/29 08:50:13;;;;;;;10.57;9.07;;;25.40;99.90;;;;;;5031746;28;20386;-84
2022/06/29 08:52:43;;;;;;;10.75;9.63;;;25.50;99.90;;;;;;5031632;28;20523;-85
2022/06/29 08:55:11;;;;;;;12.38;10.05;;;25.50;99.90;;;;;;5031357;28;20861;-85
2022/06/29 08:57:41;;;;;;;11.50;10.27;;;25.60;99.90;;;;;;5031628;28;20474;-85
2022/06/29 09:00:10;;;;;;;11.93;10.77;;;25.60;99.90;;;;;;5031761;28;20415;-84
2022/06/29 09:02:40;;;;;;;11.93;9.45;;;25.60;99.90;;;;;;5046267;28;20397;-83
2022/06/29 09:05:08;;;;;;;11.18;9.48;;;25.70;99.90;;;;;;5014052;28;20472;-85
2022/06/29 09:07:36;;;;;;;9.25;8.35;;;25.80;99.90;;;;;;5014134;28;20488;-85
2022/06/29 09:10:07;;;;;;;9.85;7.97;;;25.90;99.90;;;;;;5013888;28;20906;-84
2022/06/29 09:12:36;;;;;;;8.32;7.60;;;25.70;99.90;;;;;;5028450;28;20414;-85
2022/06/29 09:15:08;;;;;;;7.80;7.10;;;25.60;99.90;;;;;;5027188;28;20399;-84
2022/06/29 09:17:36;;;;;;;8.47;7.27;;;25.70;99.90;;;;;;5026860;28;20483;-84
2022/06/29 09:20:06;;;;;;;8.20;6.93;;;25.70;99.90;;;;;;5010121;28;20438;-83
2022/06/29 09:22:57;;;;;;;7.95;7.03;;;25.70;99.90;;;;;;5011661;28;20386;-84
2022/06/29 09:25:31;;;;;;;8.60;7.35;;;25.60;99.90;;;;;;5026669;28;20470;-84
2022/06/29 09:28:00;;;;;;;9.27;7.97;;;25.60;99.90;;;;;;5011607;28;20442;-83
2022/06/29 09:30:35;;;;;;;8.20;7.45;;;25.70;99.90;;;;;;5007431;28;20394;-85
2022/06/29 09:33:06;;;;;;;9.23;6.82;;;25.70;99.90;;;;;;5046578;28;20389;-85
2022/06/29 09:35:39;;;;;;;7.30;6.60;;;25.80;99.90;;;;;;5030424;28;21586;-85
2022/06/29 09:38:21;;;;;;;9.13;7.03;;;25.80;99.90;;;;;;5013206;28;20788;-84
2022/06/29 09:41:18;;;;;;;14.67;10.10;;;25.80;99.90;;;;;;5046232;28;20397;-83
2022/06/29 09:43:46;;;;;;;7.65;6.93;;;25.70;99.90;;;;;;5002228;28;20405;-84
2022/06/29 09:46:16;;;;;;;9.50;6.75;;;25.70;99.90;;;;;;5009049;28;20410;-83
2022/06/29 09:48:44;;;;;;;11.82;7.38;;;25.80;99.90;;;;;;5031500;28;20477;-83
2022/06/29 09:51:30;;;;;;;10.88;6.97;;;25.80;99.90;;;;;;5011491;28;20390;-84
2022/06/29 09:54:01;;;;;;;9.48;7.15;;;25.80;99.90;;;;;;5026714;28;20411;-84
2022/06/29 09:56:33;;;;;;;10.10;6.88;;;25.80;99.90;;;;;;5026856;28;20403;-83
2022/06/29 09:59:04;;;;;;;9.13;6.80;;;25.80;99.90;;;;;;5027960;28;20399;-85
2022/06/29 10:04:20;;;;;;;7.82;6.00;;;25.80;99.90;;;;;;4993783;28;20399;-84
2022/06/29 10:06:49;;;;;;;6.95;6.28;;;25.90;99.90;;;;;;5030258;28;20761;-83
2022/06/29 10:09:16;;;;;;;6.80;6.10;;;25.90;99.90;;;;;;5045978;28;20381;-83
2022/06/29 10:14:45;;;;;;;7.53;6.10;;;25.90;99.90;;;;;;5030582;28;20393;-85
2022/06/29 10:17:34;;;;;;;7.95;5.85;;;25.90;99.90;;;;;;5012967;28;20393;-83
2022/06/29 10:20:07;;;;;;;7.95;5.70;;;25.80;99.90;;;;;;5027594;28;20916;-84
2022/06/29 10:22:35;;;;;;;6.88;6.18;;;25.80;99.90;;;;;;5029527;28;20875;-85
2022/06/29 10:25:09;;;;;;;7.70;6.72;;;25.70;99.90;;;;;;5046660;28;20399;-84
2022/06/29 10:27:36;;;;;;;13.07;10.20;;;25.60;99.90;;;;;;5024196;28;20411;-84
2022/06/29 10:30:21;;;;;;;16.60;12.93;;;25.40;99.90;;;;;;5012534;28;20757;-85
2022/06/29 10:32:52;;;;;;;17.00;13.23;;;25.00;99.90;;;;;;5033361;28;20842;-84
2022/06/29 10:35:24;;;;;;;16.20;13.33;;;24.50;99.90;;;;;;5031215;28;20896;-83
2022/06/29 10:37:54;;;;;;;16.15;13.13;;;24.30;99.90;;;;;;5028395;28;20393;-83
2022/06/29 10:40:24;;;;;;;14.15;10.50;;;24.20;99.90;;;;;;5014060;28;20772;-84
2022/06/29 10:43:10;;;;;;;12.10;8.90;;;23.90;99.90;;;;;;5029859;28;20469;-83
2022/06/29 10:45:41;;;;;;;12.60;8.38;;;23.60;99.90;;;;;;5014302;28;20390;-83
2022/06/29 10:48:08;;;;;;;8.45;7.53;;;23.60;99.90;;;;;;5024645;28;20428;-84
2022/06/29 10:50:40;;;;;;;11.00;8.95;;;23.50;99.90;;;;;;5009998;28;20406;-83
2022/06/29 10:53:10;;;;;;;12.32;8.90;;;23.40;99.90;;;;;;5016485;28;20410;-81
2022/06/29 10:55:40;;;;;;;9.40;6.83;;;23.40;99.90;;;;;;5031811;28;20406;-84
2022/06/29 10:58:08;;;;;;;8.65;6.68;;;23.30;99.90;;;;;;5023139;28;20426;-83
2022/06/29 11:00:40;;;;;;;9.57;6.70;;;22.90;99.90;;;;;;5025141;28;20897;-83
2022/06/29 11:03:14;;;;;;;8.68;6.63;;;22.90;99.90;;;;;;4999046;28;20394;-83
2022/06/29 11:15:39;;;;;;;8.23;5.90;;;22.60;99.90;;;;;;5019315;28;20457;-83
2022/06/29 11:16:55;;;;;;;11.02;6.57;;;22.50;99.90;;;;;;5020296;28;20403;-82
2022/06/29 11:19:29;;;;;;;8.83;6.57;;;22.50;99.90;;;;;;5006367;28;20489;-83
2022/06/29 11:22:15;;;;;;;7.05;6.18;;;22.50;99.90;;;;;;5019238;28;20391;-83
2022/06/29 11:25:02;;;;;;;10.18;6.57;;;22.50;99.90;;;;;;5003466;28;20395;-82
2022/06/29 11:27:38;;;;;;;9.35;6.70;;;22.40;99.90;;;;;;5009597;28;20411;-84
2022/06/29 11:30:09;;;;;;;11.93;6.70;;;22.30;99.90;;;;;;5034384;28;20405;-84
2022/06/29 11:32:41;;;;;;;7.55;6.85;;;22.50;99.90;;;;;;5019391;28;20924;-83
2022/06/29 11:35:10;;;;;;;9.33;6.90;;;22.50;99.90;;;;;;5019564;28;20457;-84
2022/06/29 11:38:02;;;;;;;9.73;7.53;;;22.60;99.90;;;;;;5013531;28;20405;-82
2022/06/29 11:40:43;;;;;;;8.68;7.22;;;22.70;99.90;;;;;;5016206;28;20824;-83
2022/06/29 11:43:15;;;;;;;9.27;6.65;;;22.80;99.90;;;;;;5036392;28;20414;-83
2022/06/29 11:45:43;;;;;;;9.55;7.95;;;22.80;99.90;;;;;;5020265;28;20420;-81
2022/06/29 11:48:16;;;;;;;9.20;8.00;;;23.10;99.90;;;;;;5016282;28;20415;-82
2022/06/29 11:50:52;;;;;;;8.48;7.57;;;23.30;99.90;;;;;;5013214;28;20486;-83
2022/06/29 11:53:39;;;;;;;9.63;7.90;;;23.50;99.90;;;;;;5010535;28;20480;-83
2022/06/29 11:56:15;;;;;;;8.50;7.70;;;23.50;99.90;;;;;;5013123;28;20383;-83
2022/06/29 11:58:50;;;;;;;10.57;8.50;;;23.30;99.90;;;;;;5013378;28;20399;-82
2022/06/29 12:01:20;;;;;;;11.13;8.87;;;23.00;99.90;;;;;;5013127;28;20422;-83
2022/06/29 12:03:59;;;;;;;10.23;8.63;;;22.90;99.90;;;;;;5012376;28;20750;-83
2022/06/29 12:06:36;;;;;;;10.15;9.10;;;22.90;99.90;;;;;;5020879;28;20403;-85
2022/06/29 12:09:08;;;;;;;11.13;9.90;;;23.00;99.90;;;;;;5026944;28;20802;-84
2022/06/29 12:11:36;;;;;;;16.48;10.60;;;23.10;99.90;;;;;;5027480;28;20754;-83
2022/06/29 12:14:03;;;;;;;10.43;9.30;;;23.00;99.90;;;;;;5014694;28;20398;-83
2022/06/29 12:16:31;;;;;;;11.50;9.90;;;23.10;99.90;;;;;;5013524;28;20892;-84
2022/06/29 12:18:58;;;;;;;11.70;10.50;;;23.20;99.90;;;;;;5029027;28;20448;-83
2022/06/29 12:21:26;;;;;;;13.20;10.80;;;23.50;99.90;;;;;;5038435;28;20483;-83
2022/06/29 12:23:55;;;;;;;13.18;10.93;;;23.40;99.90;;;;;;5013775;28;20410;-81
2022/06/29 12:26:23;;;;;;;12.02;10.82;;;23.30;99.90;;;;;;5027809;28;20436;-82
2022/06/29 12:28:51;;;;;;;12.02;10.77;;;23.30;99.90;;;;;;5019974;28;20417;-82
2022/06/29 12:31:18;;;;;;;11.98;10.65;;;23.60;99.90;;;;;;4994861;28;20383;-82
2022/06/29 12:33:46;;;;;;;11.75;10.55;;;23.70;99.90;;;;;;5017534;28;20399;-82
2022/06/29 12:36:13;;;;;;;11.40;10.23;;;24.00;99.90;;;;;;5028200;28;20397;-84
2022/06/29 12:38:41;;;;;;;11.67;10.43;;;24.10;99.90;;;;;;5017070;28;20409;-84
2022/06/29 12:41:09;;;;;;;12.70;10.63;;;24.10;99.90;;;;;;5031504;28;20413;-84
2022/06/29 12:43:36;;;;;;;12.60;11.30;;;24.10;99.90;;;;;;5014445;28;20389;-84
2022/06/29 12:46:04;;;;;;;13.60;12.18;;;24.40;99.90;;;;;;5031795;28;20394;-84
2022/06/29 12:48:32;;;;;;;14.73;12.15;;;24.50;99.90;;;;;;5031652;28;20440;-83
2022/06/29 12:50:59;;;;;;;14.00;12.68;;;24.40;99.90;;;;;;5030690;28;20405;-84
2022/06/29 12:53:27;;;;;;;14.45;12.95;;;24.40;99.90;;;;;;5023458;28;20395;-82
2022/06/29 12:55:54;;;;;;;15.00;13.50;;;24.70;99.90;;;;;;5013538;28;20405;-83
2022/06/29 12:58:22;;;;;;;14.95;13.32;;;24.80;99.90;;;;;;5015822;28;20391;-83
2022/06/29 13:00:50;;;;;;;15.73;14.10;;;24.80;99.90;;;;;;5023117;28;20525;-84
2022/06/29 13:03:18;;;;;;;15.80;14.30;;;24.90;99.90;;;;;;5020490;28;20403;-82
2022/06/29 13:05:46;;;;;;;16.67;15.07;;;25.00;99.90;;;;;;5015757;28;20407;-83
2022/06/29 13:08:15;;;;;;;15.80;14.20;;;25.00;99.90;;;;;;5015739;28;20496;-83
2022/06/29 13:10:43;;;;;;;15.83;14.37;;;24.70;99.90;;;;;;5021401;28;20484;-83